sensor_id;sensor_type;location;lat;lon;timestamp;P1;durP1;ratioP1;P2;durP2;ratioP2
39740;SDS011;25426;53.478;10.190;2023-02-01T08:08:49;26.23;;;5.70;;
39740;SDS011;25426;53.478;10.190;2023-02-01T08:11:21;24.53;;;6.43;;
39740;SDS011;25426;53.478;10.190;2023-02-01T08:13:53;26.63;;;7.30;;
39740;SDS011;25426;53.478;10.190;2023-02-01T08:16:24;28.92;;;6.50;;
39740;SDS011;25426;53.478;10.190;2023-02-01T08:18:55;26.47;;;6.13;;
39740;SDS011;25426;53.478;10.190;2023-02-01T08:21:27;29.75;;;7.00;;
39740;SDS011;25426;53.478;10.190;2023-02-01T08:24:07;26.13;;;5.05;;
39740;SDS011;25426;53.478;10.190;2023-02-01T08:26:39;21.52;;;6.90;;
39740;SDS011;25426;53.478;10.190;2023-02-01T08:29:09;26.33;;;6.60;;
39740;SDS011;25426;53.478;10.190;2023-02-01T08:31:43;27.17;;;7.32;;
39740;SDS011;25426;53.478;10.190;2023-02-01T08:34:14;24.98;;;6.78;;
39740;SDS011;25426;53.478;10.190;2023-02-01T08:36:44;25.27;;;6.70;;
39740;SDS011;25426;53.478;10.190;2023-02-01T08:39:15;25.10;;;7.03;;
39740;SDS011;25426;53.478;10.190;2023-02-01T08:41:46;27.65;;;7.50;;
39740;SDS011;25426;53.478;10.190;2023-02-01T08:44:37;32.08;;;8.50;;
39740;SDS011;25426;53.478;10.190;2023-02-01T08:47:08;26.80;;;6.95;;
39740;SDS011;25426;53.478;10.190;2023-02-01T08:49:40;25.92;;;7.03;;
39740;SDS011;25426;53.478;10.190;2023-02-01T08:52:11;26.58;;;5.47;;
39740;SDS011;25426;53.478;10.190;2023-02-01T08:54:42;29.25;;;6.20;;
39740;SDS011;25426;53.478;10.190;2023-02-01T08:57:13;23.50;;;6.03;;
39740;SDS011;25426;53.478;10.190;2023-02-01T08:59:44;31.63;;;7.13;;
39740;SDS011;25426;53.478;10.190;2023-02-01T09:02:15;25.58;;;6.45;;
39740;SDS011;25426;53.478;10.190;2023-02-01T09:04:48;24.45;;;6.53;;
39740;SDS011;25426;53.478;10.190;2023-02-01T09:07:19;24.98;;;6.57;;
39740;SDS011;25426;53.478;10.190;2023-02-01T09:09:50;26.02;;;5.90;;
39740;SDS011;25426;53.478;10.190;2023-02-01T09:12:22;19.92;;;5.80;;
39740;SDS011;25426;53.478;10.190;2023-02-01T09:14:54;23.83;;;6.22;;
39740;SDS011;25426;53.478;10.190;2023-02-01T09:17:27;27.80;;;6.53;;
39740;SDS011;25426;53.478;10.190;2023-02-01T09:19:59;20.67;;;6.35;;
39740;SDS011;25426;53.478;10.190;2023-02-01T09:22:30;23.45;;;6.40;;
39740;SDS011;25426;53.478;10.190;2023-02-01T09:25:01;23.42;;;6.88;;
39740;SDS011;25426;53.478;10.190;2023-02-01T09:27:32;24.25;;;6.05;;
39740;SDS011;25426;53.478;10.190;2023-02-01T09:30:03;27.30;;;5.97;;
39740;SDS011;25426;53.478;10.190;2023-02-01T09:32:35;26.85;;;6.57;;
39740;SDS011;25426;53.478;10.190;2023-02-01T09:35:06;28.90;;;6.10;;
39740;SDS011;25426;53.478;10.190;2023-02-01T09:37:37;25.90;;;6.70;;
39740;SDS011;25426;53.478;10.190;2023-02-01T09:40:12;15.32;;;4.90;;
39740;SDS011;25426;53.478;10.190;2023-02-01T09:42:48;17.83;;;5.10;;
39740;SDS011;25426;53.478;10.190;2023-02-01T09:45:55;27.58;;;6.97;;
39740;SDS011;25426;53.478;10.190;2023-02-01T09:48:55;19.67;;;5.30;;
39740;SDS011;25426;53.478;10.190;2023-02-01T09:51:34;21.75;;;6.30;;
39740;SDS011;25426;53.478;10.190;2023-02-01T09:54:17;24.00;;;6.07;;
39740;SDS011;25426;53.478;10.190;2023-02-01T09:56:53;21.20;;;6.07;;
39740;SDS011;25426;53.478;10.190;2023-02-01T09:59:33;20.98;;;5.72;;
39740;SDS011;25426;53.478;10.190;2023-02-01T10:02:19;25.65;;;7.38;;
39740;SDS011;25426;53.478;10.190;2023-02-01T10:04:55;22.50;;;5.50;;
39740;SDS011;25426;53.478;10.190;2023-02-01T10:10:46;19.20;;;5.53;;
39740;SDS011;25426;53.478;10.190;2023-02-01T10:16:17;17.42;;;5.55;;
39740;SDS011;25426;53.478;10.190;2023-02-01T10:25:17;16.90;;;5.18;;
39740;SDS011;25426;53.478;10.190;2023-02-01T10:28:16;18.83;;;4.97;;
39740;SDS011;25426;53.478;10.190;2023-02-01T10:30:48;21.05;;;5.50;;
39740;SDS011;25426;53.478;10.190;2023-02-01T10:33:34;16.55;;;5.15;;
39740;SDS011;25426;53.478;10.190;2023-02-01T10:36:21;19.98;;;5.22;;
39740;SDS011;25426;53.478;10.190;2023-02-01T10:39:08;21.48;;;6.05;;
39740;SDS011;25426;53.478;10.190;2023-02-01T10:41:41;16.52;;;4.80;;
39740;SDS011;25426;53.478;10.190;2023-02-01T10:44:20;16.25;;;5.03;;
39740;SDS011;25426;53.478;10.190;2023-02-01T10:46:58;18.30;;;4.72;;
39740;SDS011;25426;53.478;10.190;2023-02-01T10:49:33;17.42;;;4.63;;
39740;SDS011;25426;53.478;10.190;2023-02-01T10:52:15;13.48;;;3.95;;
39740;SDS011;25426;53.478;10.190;2023-02-01T10:54:52;23.48;;;4.78;;
39740;SDS011;25426;53.478;10.190;2023-02-01T10:57:25;22.52;;;4.72;;
39740;SDS011;25426;53.478;10.190;2023-02-01T11:00:02;26.50;;;6.22;;
39740;SDS011;25426;53.478;10.190;2023-02-01T11:02:49;23.70;;;5.63;;
39740;SDS011;25426;53.478;10.190;2023-02-01T11:05:21;15.60;;;4.78;;
39740;SDS011;25426;53.478;10.190;2023-02-01T11:07:53;21.83;;;5.13;;
39740;SDS011;25426;53.478;10.190;2023-02-01T11:11:00;24.20;;;5.53;;
39740;SDS011;25426;53.478;10.190;2023-02-01T11:13:37;22.42;;;5.75;;
39740;SDS011;25426;53.478;10.190;2023-02-01T11:16:14;17.90;;;4.70;;
39740;SDS011;25426;53.478;10.190;2023-02-01T11:18:45;18.60;;;5.07;;
39740;SDS011;25426;53.478;10.190;2023-02-01T11:21:27;18.33;;;4.43;;
39740;SDS011;25426;53.478;10.190;2023-02-01T11:24:02;21.48;;;6.18;;
39740;SDS011;25426;53.478;10.190;2023-02-01T11:26:35;17.55;;;4.60;;
39740;SDS011;25426;53.478;10.190;2023-02-01T11:29:12;19.80;;;4.60;;
39740;SDS011;25426;53.478;10.190;2023-02-01T11:31:53;18.38;;;4.68;;
39740;SDS011;25426;53.478;10.190;2023-02-01T11:34:33;19.58;;;4.82;;
39740;SDS011;25426;53.478;10.190;2023-02-01T11:37:15;14.55;;;4.35;;
39740;SDS011;25426;53.478;10.190;2023-02-01T11:39:56;24.85;;;5.40;;
39740;SDS011;25426;53.478;10.190;2023-02-01T11:42:30;21.42;;;5.30;;
39740;SDS011;25426;53.478;10.190;2023-02-01T11:45:17;18.35;;;5.80;;
39740;SDS011;25426;53.478;10.190;2023-02-01T11:48:08;20.88;;;6.28;;
39740;SDS011;25426;53.478;10.190;2023-02-01T11:50:46;20.42;;;5.50;;
39740;SDS011;25426;53.478;10.190;2023-02-01T11:56:39;12.90;;;3.45;;
39740;SDS011;25426;53.478;10.190;2023-02-01T12:03:08;14.80;;;4.65;;
39740;SDS011;25426;53.478;10.190;2023-02-01T12:06:25;13.13;;;4.00;;
39740;SDS011;25426;53.478;10.190;2023-02-01T12:15:40;10.23;;;3.03;;
39740;SDS011;25426;53.478;10.190;2023-02-01T12:24:50;8.77;;;2.17;;
39740;SDS011;25426;53.478;10.190;2023-02-01T12:37:57;10.73;;;3.33;;
39740;SDS011;25426;53.478;10.190;2023-02-01T12:44:49;5.05;;;2.30;;
39740;SDS011;25426;53.478;10.190;2023-02-01T12:47:57;7.35;;;2.13;;
39740;SDS011;25426;53.478;10.190;2023-02-01T12:51:02;6.50;;;2.10;;
39740;SDS011;25426;53.478;10.190;2023-02-01T12:53:50;2.97;;;1.60;;
39740;SDS011;25426;53.478;10.190;2023-02-01T12:56:46;3.40;;;1.50;;
39740;SDS011;25426;53.478;10.190;2023-02-01T13:00:00;4.20;;;1.63;;
39740;SDS011;25426;53.478;10.190;2023-02-01T13:06:02;3.92;;;1.58;;
39740;SDS011;25426;53.478;10.190;2023-02-01T13:08:59;2.25;;;1.33;;
39740;SDS011;25426;53.478;10.190;2023-02-01T13:11:38;2.13;;;1.05;;
39740;SDS011;25426;53.478;10.190;2023-02-01T13:14:36;3.13;;;1.45;;
39740;SDS011;25426;53.478;10.190;2023-02-01T13:17:43;2.38;;;1.27;;
39740;SDS011;25426;53.478;10.190;2023-02-01T13:23:09;1.95;;;1.30;;
39740;SDS011;25426;53.478;10.190;2023-02-01T13:26:00;1.30;;;1.20;;
39740;SDS011;25426;53.478;10.190;2023-02-01T13:28:37;1.88;;;1.10;;
39740;SDS011;25426;53.478;10.190;2023-02-01T13:37:59;2.92;;;1.30;;
39740;SDS011;25426;53.478;10.190;2023-02-01T13:44:02;1.83;;;1.38;;
39740;SDS011;25426;53.478;10.190;2023-02-01T13:46:50;1.58;;;1.05;;
39740;SDS011;25426;53.478;10.190;2023-02-01T13:49:38;1.38;;;1.10;;
39740;SDS011;25426;53.478;10.190;2023-02-01T13:52:26;3.13;;;1.27;;
39740;SDS011;25426;53.478;10.190;2023-02-01T13:58:01;4.13;;;1.30;;
39740;SDS011;25426;53.478;10.190;2023-02-01T14:03:59;2.17;;;1.17;;
39740;SDS011;25426;53.478;10.190;2023-02-01T14:06:45;2.40;;;1.33;;
39740;SDS011;25426;53.478;10.190;2023-02-01T14:09:18;2.38;;;1.20;;
39740;SDS011;25426;53.478;10.190;2023-02-01T14:12:42;6.53;;;1.70;;
39740;SDS011;25426;53.478;10.190;2023-02-01T14:17:57;3.15;;;1.33;;
39740;SDS011;25426;53.478;10.190;2023-02-01T14:20:41;3.70;;;1.50;;
39740;SDS011;25426;53.478;10.190;2023-02-01T14:23:16;4.22;;;1.45;;
39740;SDS011;25426;53.478;10.190;2023-02-01T14:26:02;6.10;;;1.25;;
39740;SDS011;25426;53.478;10.190;2023-02-01T14:28:42;5.88;;;1.90;;
39740;SDS011;25426;53.478;10.190;2023-02-01T14:47:52;12.77;;;1.90;;
39740;SDS011;25426;53.478;10.190;2023-02-01T14:58:52;3.10;;;2.00;;
39740;SDS011;25426;53.478;10.190;2023-02-01T15:01:35;7.93;;;2.28;;
39740;SDS011;25426;53.478;10.190;2023-02-01T15:04:18;6.35;;;2.45;;
39740;SDS011;25426;53.478;10.190;2023-02-01T15:06:52;4.47;;;2.42;;
39740;SDS011;25426;53.478;10.190;2023-02-01T15:09:28;9.90;;;2.63;;
39740;SDS011;25426;53.478;10.190;2023-02-01T15:14:43;12.93;;;3.42;;
39740;SDS011;25426;53.478;10.190;2023-02-01T15:23:15;16.17;;;3.55;;
39740;SDS011;25426;53.478;10.190;2023-02-01T15:25:47;12.85;;;3.53;;
39740;SDS011;25426;53.478;10.190;2023-02-01T15:28:18;15.23;;;3.42;;
39740;SDS011;25426;53.478;10.190;2023-02-01T15:31:02;18.48;;;3.90;;
39740;SDS011;25426;53.478;10.190;2023-02-01T15:33:35;14.00;;;4.20;;
39740;SDS011;25426;53.478;10.190;2023-02-01T15:38:48;16.35;;;3.75;;
39740;SDS011;25426;53.478;10.190;2023-02-01T15:41:20;14.55;;;3.70;;
39740;SDS011;25426;53.478;10.190;2023-02-01T15:46:35;11.45;;;3.28;;
39740;SDS011;25426;53.478;10.190;2023-02-01T15:49:23;6.35;;;2.38;;
39740;SDS011;25426;53.478;10.190;2023-02-01T15:52:01;10.48;;;2.97;;
39740;SDS011;25426;53.478;10.190;2023-02-01T15:54:40;8.32;;;3.05;;
39740;SDS011;25426;53.478;10.190;2023-02-01T15:57:32;13.25;;;3.58;;
39740;SDS011;25426;53.478;10.190;2023-02-01T16:00:23;9.52;;;2.85;;
39740;SDS011;25426;53.478;10.190;2023-02-01T16:03:00;8.23;;;2.58;;
39740;SDS011;25426;53.478;10.190;2023-02-01T16:05:53;15.77;;;3.83;;
39740;SDS011;25426;53.478;10.190;2023-02-01T16:08:31;13.75;;;3.95;;
39740;SDS011;25426;53.478;10.190;2023-02-01T16:13:39;18.00;;;4.63;;
39740;SDS011;25426;53.478;10.190;2023-02-01T16:16:11;14.55;;;4.43;;
39740;SDS011;25426;53.478;10.190;2023-02-01T16:18:43;16.73;;;3.72;;
39740;SDS011;25426;53.478;10.190;2023-02-01T16:21:14;18.17;;;4.15;;
39740;SDS011;25426;53.478;10.190;2023-02-01T16:23:51;17.15;;;4.60;;
39740;SDS011;25426;53.478;10.190;2023-02-01T16:26:22;16.30;;;4.07;;
39740;SDS011;25426;53.478;10.190;2023-02-01T16:28:53;17.00;;;4.78;;
39740;SDS011;25426;53.478;10.190;2023-02-01T16:31:26;21.75;;;4.50;;
39740;SDS011;25426;53.478;10.190;2023-02-01T16:34:00;15.52;;;6.15;;
39740;SDS011;25426;53.478;10.190;2023-02-01T16:36:31;20.60;;;5.25;;
39740;SDS011;25426;53.478;10.190;2023-02-01T16:39:03;14.68;;;4.72;;
39740;SDS011;25426;53.478;10.190;2023-02-01T16:41:34;19.55;;;4.38;;
39740;SDS011;25426;53.478;10.190;2023-02-01T16:44:05;19.40;;;4.65;;
39740;SDS011;25426;53.478;10.190;2023-02-01T16:46:41;21.42;;;5.40;;
39740;SDS011;25426;53.478;10.190;2023-02-01T16:49:17;19.23;;;5.57;;
39740;SDS011;25426;53.478;10.190;2023-02-01T16:51:55;17.65;;;6.38;;
39740;SDS011;25426;53.478;10.190;2023-02-01T16:54:27;25.40;;;6.63;;
39740;SDS011;25426;53.478;10.190;2023-02-01T16:56:58;30.27;;;9.80;;
39740;SDS011;25426;53.478;10.190;2023-02-01T16:59:29;28.50;;;9.55;;
39740;SDS011;25426;53.478;10.190;2023-02-01T17:02:00;22.92;;;6.85;;
39740;SDS011;25426;53.478;10.190;2023-02-01T17:04:31;31.35;;;6.70;;
39740;SDS011;25426;53.478;10.190;2023-02-01T17:07:02;25.98;;;6.32;;
39740;SDS011;25426;53.478;10.190;2023-02-01T17:09:38;23.35;;;6.97;;
39740;SDS011;25426;53.478;10.190;2023-02-01T17:12:30;24.92;;;6.40;;
39740;SDS011;25426;53.478;10.190;2023-02-01T17:15:02;24.35;;;5.95;;
39740;SDS011;25426;53.478;10.190;2023-02-01T17:17:36;33.60;;;6.63;;
39740;SDS011;25426;53.478;10.190;2023-02-01T17:20:19;27.75;;;6.50;;
39740;SDS011;25426;53.478;10.190;2023-02-01T17:22:53;29.13;;;7.30;;
39740;SDS011;25426;53.478;10.190;2023-02-01T17:25:24;28.02;;;7.15;;
39740;SDS011;25426;53.478;10.190;2023-02-01T17:27:56;34.45;;;6.78;;
39740;SDS011;25426;53.478;10.190;2023-02-01T17:30:27;23.95;;;7.00;;
39740;SDS011;25426;53.478;10.190;2023-02-01T17:32:58;25.33;;;6.65;;
39740;SDS011;25426;53.478;10.190;2023-02-01T17:35:29;28.05;;;6.60;;
39740;SDS011;25426;53.478;10.190;2023-02-01T17:38:01;29.15;;;6.07;;
39740;SDS011;25426;53.478;10.190;2023-02-01T17:40:32;25.98;;;5.47;;
39740;SDS011;25426;53.478;10.190;2023-02-01T17:43:04;34.88;;;6.47;;
39740;SDS011;25426;53.478;10.190;2023-02-01T17:45:36;26.55;;;7.22;;
39740;SDS011;25426;53.478;10.190;2023-02-01T17:48:21;30.75;;;8.18;;
39740;SDS011;25426;53.478;10.190;2023-02-01T17:50:53;25.33;;;5.65;;
39740;SDS011;25426;53.478;10.190;2023-02-01T17:53:27;27.30;;;6.20;;
39740;SDS011;25426;53.478;10.190;2023-02-01T17:55:59;24.05;;;6.47;;
39740;SDS011;25426;53.478;10.190;2023-02-01T17:58:30;23.10;;;5.88;;
39740;SDS011;25426;53.478;10.190;2023-02-01T18:01:02;21.70;;;6.50;;
39740;SDS011;25426;53.478;10.190;2023-02-01T18:03:33;25.02;;;6.43;;
39740;SDS011;25426;53.478;10.190;2023-02-01T18:06:05;19.60;;;5.85;;
39740;SDS011;25426;53.478;10.190;2023-02-01T18:08:48;22.55;;;5.35;;
39740;SDS011;25426;53.478;10.190;2023-02-01T18:11:21;13.63;;;5.28;;
39740;SDS011;25426;53.478;10.190;2023-02-01T18:13:53;19.10;;;5.57;;
39740;SDS011;25426;53.478;10.190;2023-02-01T18:16:25;26.17;;;6.55;;
39740;SDS011;25426;53.478;10.190;2023-02-01T18:19:02;23.88;;;5.60;;
39740;SDS011;25426;53.478;10.190;2023-02-01T18:21:35;21.48;;;4.25;;
39740;SDS011;25426;53.478;10.190;2023-02-01T18:24:11;22.38;;;5.40;;
39740;SDS011;25426;53.478;10.190;2023-02-01T18:26:43;23.77;;;5.88;;
39740;SDS011;25426;53.478;10.190;2023-02-01T18:29:14;16.52;;;4.63;;
39740;SDS011;25426;53.478;10.190;2023-02-01T18:31:46;24.17;;;5.82;;
39740;SDS011;25426;53.478;10.190;2023-02-01T18:34:21;19.90;;;4.40;;
39740;SDS011;25426;53.478;10.190;2023-02-01T18:36:54;20.05;;;5.70;;
39740;SDS011;25426;53.478;10.190;2023-02-01T18:39:25;22.17;;;6.38;;
39740;SDS011;25426;53.478;10.190;2023-02-01T18:41:56;24.70;;;5.32;;
39740;SDS011;25426;53.478;10.190;2023-02-01T18:44:28;18.92;;;5.00;;
39740;SDS011;25426;53.478;10.190;2023-02-01T18:46:59;30.55;;;6.63;;
39740;SDS011;25426;53.478;10.190;2023-02-01T18:49:30;27.95;;;6.03;;
